sensor_id;sensor_type;location;lat;lon;timestamp;P1;durP1;ratioP1;P2;durP2;ratioP2
25824;SDS011;13658;44.534;18.694;2023-03-14T00:02:07;138.65;;;61.05;;
25824;SDS011;13658;44.534;18.694;2023-03-14T00:04:33;132.07;;;59.70;;
25824;SDS011;13658;44.534;18.694;2023-03-14T00:06:59;128.25;;;60.55;;
25824;SDS011;13658;44.534;18.694;2023-03-14T00:09:25;118.80;;;55.75;;
25824;SDS011;13658;44.534;18.694;2023-03-14T00:11:55;112.25;;;53.47;;
25824;SDS011;13658;44.534;18.694;2023-03-14T00:14:21;100.57;;;48.03;;
25824;SDS011;13658;44.534;18.694;2023-03-14T00:16:47;95.03;;;44.15;;
25824;SDS011;13658;44.534;18.694;2023-03-14T00:19:13;101.85;;;46.72;;
25824;SDS011;13658;44.534;18.694;2023-03-14T00:21:39;95.13;;;44.92;;
25824;SDS011;13658;44.534;18.694;2023-03-14T00:24:05;92.57;;;44.40;;
25824;SDS011;13658;44.534;18.694;2023-03-14T00:26:32;95.65;;;46.05;;
25824;SDS011;13658;44.534;18.694;2023-03-14T00:28:58;104.65;;;48.75;;
25824;SDS011;13658;44.534;18.694;2023-03-14T00:31:24;103.32;;;49.30;;
25824;SDS011;13658;44.534;18.694;2023-03-14T00:33:51;110.90;;;50.00;;
25824;SDS011;13658;44.534;18.694;2023-03-14T00:36:18;107.28;;;50.10;;
25824;SDS011;13658;44.534;18.694;2023-03-14T00:38:46;114.57;;;53.15;;
25824;SDS011;13658;44.534;18.694;2023-03-14T00:41:15;124.22;;;55.17;;
25824;SDS011;13658;44.534;18.694;2023-03-14T00:43:43;121.32;;;54.33;;
25824;SDS011;13658;44.534;18.694;2023-03-14T00:46:09;117.45;;;52.72;;
25824;SDS011;13658;44.534;18.694;2023-03-14T00:48:36;110.50;;;50.53;;
25824;SDS011;13658;44.534;18.694;2023-03-14T00:51:03;126.90;;;54.00;;
25824;SDS011;13658;44.534;18.694;2023-03-14T00:53:29;117.07;;;50.10;;
25824;SDS011;13658;44.534;18.694;2023-03-14T00:55:55;98.20;;;46.97;;
25824;SDS011;13658;44.534;18.694;2023-03-14T00:58:22;125.40;;;53.45;;
25824;SDS011;13658;44.534;18.694;2023-03-14T01:00:48;113.47;;;49.15;;
25824;SDS011;13658;44.534;18.694;2023-03-14T01:03:14;120.10;;;51.28;;
25824;SDS011;13658;44.534;18.694;2023-03-14T01:05:41;111.57;;;50.83;;
25824;SDS011;13658;44.534;18.694;2023-03-14T01:08:07;109.18;;;50.15;;
25824;SDS011;13658;44.534;18.694;2023-03-14T01:10:34;110.90;;;50.78;;
25824;SDS011;13658;44.534;18.694;2023-03-14T01:13:04;104.30;;;46.13;;
25824;SDS011;13658;44.534;18.694;2023-03-14T01:15:31;95.82;;;46.15;;
25824;SDS011;13658;44.534;18.694;2023-03-14T01:18:01;93.63;;;44.75;;
25824;SDS011;13658;44.534;18.694;2023-03-14T01:20:27;96.82;;;44.90;;
25824;SDS011;13658;44.534;18.694;2023-03-14T01:22:53;103.70;;;47.22;;
25824;SDS011;13658;44.534;18.694;2023-03-14T01:25:19;107.53;;;46.85;;
25824;SDS011;13658;44.534;18.694;2023-03-14T01:27:46;106.57;;;47.65;;
25824;SDS011;13658;44.534;18.694;2023-03-14T01:30:12;91.93;;;43.53;;
25824;SDS011;13658;44.534;18.694;2023-03-14T01:32:39;86.25;;;41.88;;
25824;SDS011;13658;44.534;18.694;2023-03-14T01:35:05;84.78;;;41.90;;
25824;SDS011;13658;44.534;18.694;2023-03-14T01:37:32;85.35;;;42.50;;
25824;SDS011;13658;44.534;18.694;2023-03-14T01:39:58;84.82;;;41.00;;
25824;SDS011;13658;44.534;18.694;2023-03-14T01:42:25;80.63;;;38.85;;
25824;SDS011;13658;44.534;18.694;2023-03-14T01:47:18;81.90;;;39.20;;
25824;SDS011;13658;44.534;18.694;2023-03-14T01:49:49;87.18;;;41.58;;
25824;SDS011;13658;44.534;18.694;2023-03-14T01:52:39;83.22;;;39.08;;
25824;SDS011;13658;44.534;18.694;2023-03-14T01:55:12;79.88;;;38.17;;
25824;SDS011;13658;44.534;18.694;2023-03-14T01:57:46;77.75;;;38.47;;
25824;SDS011;13658;44.534;18.694;2023-03-14T02:00:20;75.78;;;37.13;;
25824;SDS011;13658;44.534;18.694;2023-03-14T02:02:52;76.03;;;37.38;;
25824;SDS011;13658;44.534;18.694;2023-03-14T02:05:31;75.47;;;35.20;;
25824;SDS011;13658;44.534;18.694;2023-03-14T02:08:02;77.45;;;35.28;;
25824;SDS011;13658;44.534;18.694;2023-03-14T02:10:55;77.95;;;35.28;;
25824;SDS011;13658;44.534;18.694;2023-03-14T02:13:42;79.38;;;36.03;;
25824;SDS011;13658;44.534;18.694;2023-03-14T02:16:34;81.05;;;36.30;;
25824;SDS011;13658;44.534;18.694;2023-03-14T02:19:13;70.13;;;34.83;;
25824;SDS011;13658;44.534;18.694;2023-03-14T02:22:07;73.97;;;34.47;;
25824;SDS011;13658;44.534;18.694;2023-03-14T02:25:08;65.00;;;33.90;;
25824;SDS011;13658;44.534;18.694;2023-03-14T02:27:38;74.85;;;35.70;;
25824;SDS011;13658;44.534;18.694;2023-03-14T02:30:06;75.00;;;36.10;;
25824;SDS011;13658;44.534;18.694;2023-03-14T02:32:46;75.35;;;38.03;;
25824;SDS011;13658;44.534;18.694;2023-03-14T02:35:17;85.43;;;38.75;;
25824;SDS011;13658;44.534;18.694;2023-03-14T02:40:52;70.72;;;34.40;;
25824;SDS011;13658;44.534;18.694;2023-03-14T02:43:19;74.32;;;35.72;;
25824;SDS011;13658;44.534;18.694;2023-03-14T02:45:55;69.15;;;35.15;;
25824;SDS011;13658;44.534;18.694;2023-03-14T02:50:54;65.32;;;32.47;;
25824;SDS011;13658;44.534;18.694;2023-03-14T02:53:23;60.15;;;32.10;;
25824;SDS011;13658;44.534;18.694;2023-03-14T02:55:54;58.90;;;30.70;;
25824;SDS011;13658;44.534;18.694;2023-03-14T02:58:22;66.60;;;32.42;;
25824;SDS011;13658;44.534;18.694;2023-03-14T03:00:54;55.00;;;28.98;;
25824;SDS011;13658;44.534;18.694;2023-03-14T03:03:22;62.17;;;30.15;;
25824;SDS011;13658;44.534;18.694;2023-03-14T03:05:49;64.05;;;31.25;;
25824;SDS011;13658;44.534;18.694;2023-03-14T03:08:16;60.63;;;29.65;;
25824;SDS011;13658;44.534;18.694;2023-03-14T03:10:43;57.60;;;29.08;;
25824;SDS011;13658;44.534;18.694;2023-03-14T03:13:09;57.80;;;28.63;;
25824;SDS011;13658;44.534;18.694;2023-03-14T03:15:36;57.35;;;28.48;;
25824;SDS011;13658;44.534;18.694;2023-03-14T03:18:02;52.25;;;27.85;;
25824;SDS011;13658;44.534;18.694;2023-03-14T03:20:28;57.80;;;28.38;;
25824;SDS011;13658;44.534;18.694;2023-03-14T03:22:54;53.75;;;27.10;;
25824;SDS011;13658;44.534;18.694;2023-03-14T03:25:20;47.00;;;24.77;;
25824;SDS011;13658;44.534;18.694;2023-03-14T03:27:46;46.08;;;22.48;;
25824;SDS011;13658;44.534;18.694;2023-03-14T03:30:16;43.83;;;23.15;;
25824;SDS011;13658;44.534;18.694;2023-03-14T03:32:42;50.88;;;24.58;;
25824;SDS011;13658;44.534;18.694;2023-03-14T03:35:08;47.78;;;24.90;;
25824;SDS011;13658;44.534;18.694;2023-03-14T03:37:37;49.85;;;24.52;;
25824;SDS011;13658;44.534;18.694;2023-03-14T03:40:05;47.53;;;25.48;;
25824;SDS011;13658;44.534;18.694;2023-03-14T03:42:34;54.08;;;25.08;;
25824;SDS011;13658;44.534;18.694;2023-03-14T03:45:02;48.20;;;23.88;;
25824;SDS011;13658;44.534;18.694;2023-03-14T03:47:30;50.22;;;25.10;;
25824;SDS011;13658;44.534;18.694;2023-03-14T03:49:58;50.53;;;24.73;;
25824;SDS011;13658;44.534;18.694;2023-03-14T03:52:24;45.78;;;24.45;;
25824;SDS011;13658;44.534;18.694;2023-03-14T03:54:50;48.00;;;24.50;;
25824;SDS011;13658;44.534;18.694;2023-03-14T03:57:16;49.17;;;25.10;;
25824;SDS011;13658;44.534;18.694;2023-03-14T03:59:42;50.78;;;25.73;;
25824;SDS011;13658;44.534;18.694;2023-03-14T04:02:08;47.90;;;25.85;;
25824;SDS011;13658;44.534;18.694;2023-03-14T04:04:34;53.15;;;25.45;;
25824;SDS011;13658;44.534;18.694;2023-03-14T04:07:02;48.53;;;24.88;;
25824;SDS011;13658;44.534;18.694;2023-03-14T04:09:28;47.88;;;24.83;;
25824;SDS011;13658;44.534;18.694;2023-03-14T04:12:12;56.15;;;31.13;;
25824;SDS011;13658;44.534;18.694;2023-03-14T04:14:54;56.20;;;28.13;;
25824;SDS011;13658;44.534;18.694;2023-03-14T04:17:21;48.55;;;26.63;;
25824;SDS011;13658;44.534;18.694;2023-03-14T04:19:47;45.03;;;25.38;;
25824;SDS011;13658;44.534;18.694;2023-03-14T04:22:16;43.58;;;23.45;;
25824;SDS011;13658;44.534;18.694;2023-03-14T04:24:48;40.75;;;23.08;;
25824;SDS011;13658;44.534;18.694;2023-03-14T04:27:14;42.58;;;22.50;;
25824;SDS011;13658;44.534;18.694;2023-03-14T04:29:42;43.65;;;21.52;;
25824;SDS011;13658;44.534;18.694;2023-03-14T04:32:09;38.35;;;21.48;;
25824;SDS011;13658;44.534;18.694;2023-03-14T04:34:37;35.97;;;20.50;;
25824;SDS011;13658;44.534;18.694;2023-03-14T04:37:04;38.05;;;20.35;;
25824;SDS011;13658;44.534;18.694;2023-03-14T04:39:35;35.22;;;19.70;;
25824;SDS011;13658;44.534;18.694;2023-03-14T04:42:09;39.30;;;21.45;;
25824;SDS011;13658;44.534;18.694;2023-03-14T04:44:36;35.97;;;19.73;;
25824;SDS011;13658;44.534;18.694;2023-03-14T04:47:03;39.65;;;21.48;;
25824;SDS011;13658;44.534;18.694;2023-03-14T04:49:30;39.17;;;21.10;;
25824;SDS011;13658;44.534;18.694;2023-03-14T04:51:56;46.53;;;22.63;;
25824;SDS011;13658;44.534;18.694;2023-03-14T04:54:24;49.67;;;23.90;;
25824;SDS011;13658;44.534;18.694;2023-03-14T04:56:54;43.35;;;24.08;;
25824;SDS011;13658;44.534;18.694;2023-03-14T04:59:21;55.30;;;25.63;;
25824;SDS011;13658;44.534;18.694;2023-03-14T05:01:49;44.80;;;21.83;;
25824;SDS011;13658;44.534;18.694;2023-03-14T05:04:34;43.03;;;22.35;;
25824;SDS011;13658;44.534;18.694;2023-03-14T05:07:19;40.97;;;21.20;;
25824;SDS011;13658;44.534;18.694;2023-03-14T05:09:52;42.30;;;22.13;;
25824;SDS011;13658;44.534;18.694;2023-03-14T05:12:48;45.95;;;22.30;;
25824;SDS011;13658;44.534;18.694;2023-03-14T05:15:32;46.95;;;23.13;;
25824;SDS011;13658;44.534;18.694;2023-03-14T05:18:24;45.15;;;23.52;;
25824;SDS011;13658;44.534;18.694;2023-03-14T05:21:07;42.92;;;23.20;;
25824;SDS011;13658;44.534;18.694;2023-03-14T05:23:42;44.05;;;21.90;;
25824;SDS011;13658;44.534;18.694;2023-03-14T05:26:23;49.55;;;25.88;;
25824;SDS011;13658;44.534;18.694;2023-03-14T05:28:59;51.83;;;26.50;;
25824;SDS011;13658;44.534;18.694;2023-03-14T05:31:44;48.50;;;25.02;;
25824;SDS011;13658;44.534;18.694;2023-03-14T05:34:39;50.58;;;25.17;;
25824;SDS011;13658;44.534;18.694;2023-03-14T05:37:32;53.92;;;25.50;;
25824;SDS011;13658;44.534;18.694;2023-03-14T05:40:27;53.25;;;25.10;;
25824;SDS011;13658;44.534;18.694;2023-03-14T05:43:12;48.47;;;23.33;;
25824;SDS011;13658;44.534;18.694;2023-03-14T05:45:54;47.72;;;21.90;;
25824;SDS011;13658;44.534;18.694;2023-03-14T05:48:32;40.33;;;20.65;;
25824;SDS011;13658;44.534;18.694;2023-03-14T05:51:09;36.28;;;18.60;;
25824;SDS011;13658;44.534;18.694;2023-03-14T05:53:57;31.63;;;16.70;;
25824;SDS011;13658;44.534;18.694;2023-03-14T05:56:41;52.55;;;25.30;;
25824;SDS011;13658;44.534;18.694;2023-03-14T05:59:16;49.00;;;26.33;;
25824;SDS011;13658;44.534;18.694;2023-03-14T06:02:00;43.65;;;22.92;;
25824;SDS011;13658;44.534;18.694;2023-03-14T06:04:33;69.57;;;34.92;;
25824;SDS011;13658;44.534;18.694;2023-03-14T06:06:59;65.60;;;33.65;;
25824;SDS011;13658;44.534;18.694;2023-03-14T06:09:25;69.60;;;38.15;;
25824;SDS011;13658;44.534;18.694;2023-03-14T06:11:54;65.78;;;35.65;;
25824;SDS011;13658;44.534;18.694;2023-03-14T06:14:20;53.97;;;29.40;;
25824;SDS011;13658;44.534;18.694;2023-03-14T06:16:48;55.70;;;31.35;;
25824;SDS011;13658;44.534;18.694;2023-03-14T06:19:17;51.55;;;28.40;;
25824;SDS011;13658;44.534;18.694;2023-03-14T06:21:43;65.28;;;33.08;;
25824;SDS011;13658;44.534;18.694;2023-03-14T06:24:09;77.28;;;37.50;;
25824;SDS011;13658;44.534;18.694;2023-03-14T06:26:41;74.90;;;38.50;;
25824;SDS011;13658;44.534;18.694;2023-03-14T06:29:08;71.60;;;36.25;;
25824;SDS011;13658;44.534;18.694;2023-03-14T06:31:34;75.47;;;37.13;;
25824;SDS011;13658;44.534;18.694;2023-03-14T06:34:03;75.05;;;39.65;;
25824;SDS011;13658;44.534;18.694;2023-03-14T06:36:30;75.00;;;38.55;;
25824;SDS011;13658;44.534;18.694;2023-03-14T06:38:57;71.18;;;36.63;;
25824;SDS011;13658;44.534;18.694;2023-03-14T06:41:24;81.38;;;42.20;;
25824;SDS011;13658;44.534;18.694;2023-03-14T06:43:52;74.70;;;39.15;;
25824;SDS011;13658;44.534;18.694;2023-03-14T06:46:19;47.78;;;27.40;;
25824;SDS011;13658;44.534;18.694;2023-03-14T06:48:46;47.10;;;24.92;;
25824;SDS011;13658;44.534;18.694;2023-03-14T06:51:12;46.13;;;25.15;;
25824;SDS011;13658;44.534;18.694;2023-03-14T06:53:38;49.00;;;25.02;;
25824;SDS011;13658;44.534;18.694;2023-03-14T06:56:05;71.35;;;39.08;;
25824;SDS011;13658;44.534;18.694;2023-03-14T06:58:32;75.75;;;39.78;;
25824;SDS011;13658;44.534;18.694;2023-03-14T07:01:00;76.28;;;39.03;;
25824;SDS011;13658;44.534;18.694;2023-03-14T07:03:31;76.65;;;42.13;;
25824;SDS011;13658;44.534;18.694;2023-03-14T07:05:58;74.47;;;40.80;;
25824;SDS011;13658;44.534;18.694;2023-03-14T07:08:24;77.57;;;42.30;;
25824;SDS011;13658;44.534;18.694;2023-03-14T07:10:51;73.93;;;40.40;;
25824;SDS011;13658;44.534;18.694;2023-03-14T07:13:17;82.30;;;44.38;;
25824;SDS011;13658;44.534;18.694;2023-03-14T07:16:09;79.82;;;45.33;;
25824;SDS011;13658;44.534;18.694;2023-03-14T07:18:36;87.65;;;44.95;;
25824;SDS011;13658;44.534;18.694;2023-03-14T07:21:07;75.90;;;41.92;;
25824;SDS011;13658;44.534;18.694;2023-03-14T07:23:37;91.82;;;52.08;;
25824;SDS011;13658;44.534;18.694;2023-03-14T07:26:04;94.82;;;49.50;;
25824;SDS011;13658;44.534;18.694;2023-03-14T07:28:32;87.45;;;45.35;;
25824;SDS011;13658;44.534;18.694;2023-03-14T07:31:06;94.20;;;51.60;;
25824;SDS011;13658;44.534;18.694;2023-03-14T07:33:32;111.35;;;56.03;;
25824;SDS011;13658;44.534;18.694;2023-03-14T07:35:59;94.53;;;53.53;;
25824;SDS011;13658;44.534;18.694;2023-03-14T07:38:25;99.78;;;56.33;;
25824;SDS011;13658;44.534;18.694;2023-03-14T07:41:12;100.75;;;57.83;;
25824;SDS011;13658;44.534;18.694;2023-03-14T07:43:49;105.93;;;63.17;;
25824;SDS011;13658;44.534;18.694;2023-03-14T07:46:15;111.53;;;65.95;;
25824;SDS011;13658;44.534;18.694;2023-03-14T07:48:42;114.35;;;66.75;;
25824;SDS011;13658;44.534;18.694;2023-03-14T07:51:08;121.93;;;72.15;;
25824;SDS011;13658;44.534;18.694;2023-03-14T07:53:34;121.00;;;70.05;;
25824;SDS011;13658;44.534;18.694;2023-03-14T07:56:00;129.32;;;75.20;;
25824;SDS011;13658;44.534;18.694;2023-03-14T07:58:26;125.50;;;74.88;;
25824;SDS011;13658;44.534;18.694;2023-03-14T08:00:52;118.97;;;72.78;;
25824;SDS011;13658;44.534;18.694;2023-03-14T08:03:18;123.18;;;73.20;;
25824;SDS011;13658;44.534;18.694;2023-03-14T08:05:47;118.90;;;71.03;;
25824;SDS011;13658;44.534;18.694;2023-03-14T08:08:14;119.15;;;72.88;;
25824;SDS011;13658;44.534;18.694;2023-03-14T08:10:40;100.28;;;63.88;;
25824;SDS011;13658;44.534;18.694;2023-03-14T08:13:06;116.07;;;71.55;;
25824;SDS011;13658;44.534;18.694;2023-03-14T08:15:32;123.13;;;73.10;;
25824;SDS011;13658;44.534;18.694;2023-03-14T08:17:58;122.22;;;70.63;;
25824;SDS011;13658;44.534;18.694;2023-03-14T08:20:26;68.07;;;39.88;;
25824;SDS011;13658;44.534;18.694;2023-03-14T08:22:57;59.00;;;35.22;;
25824;SDS011;13658;44.534;18.694;2023-03-14T08:25:25;42.35;;;25.58;;
25824;SDS011;13658;44.534;18.694;2023-03-14T08:27:52;21.92;;;14.38;;
25824;SDS011;13658;44.534;18.694;2023-03-14T08:30:18;35.28;;;21.83;;
25824;SDS011;13658;44.534;18.694;2023-03-14T08:32:46;24.80;;;12.70;;
25824;SDS011;13658;44.534;18.694;2023-03-14T08:35:12;17.67;;;12.65;;
25824;SDS011;13658;44.534;18.694;2023-03-14T08:37:38;44.97;;;29.27;;
25824;SDS011;13658;44.534;18.694;2023-03-14T08:40:05;33.95;;;21.50;;
25824;SDS011;13658;44.534;18.694;2023-03-14T08:42:32;8.13;;;5.20;;
25824;SDS011;13658;44.534;18.694;2023-03-14T08:44:58;5.97;;;3.85;;
25824;SDS011;13658;44.534;18.694;2023-03-14T08:47:25;6.85;;;3.90;;
25824;SDS011;13658;44.534;18.694;2023-03-14T08:49:51;4.60;;;3.10;;
25824;SDS011;13658;44.534;18.694;2023-03-14T08:52:17;8.10;;;3.88;;
25824;SDS011;13658;44.534;18.694;2023-03-14T08:54:43;46.65;;;33.50;;
25824;SDS011;13658;44.534;18.694;2023-03-14T08:57:09;12.50;;;9.45;;
25824;SDS011;13658;44.534;18.694;2023-03-14T08:59:35;4.20;;;2.95;;
25824;SDS011;13658;44.534;18.694;2023-03-14T09:02:01;55.05;;;37.45;;
25824;SDS011;13658;44.534;18.694;2023-03-14T09:04:31;4.65;;;2.47;;
25824;SDS011;13658;44.534;18.694;2023-03-14T09:06:58;6.85;;;4.75;;
25824;SDS011;13658;44.534;18.694;2023-03-14T09:09:25;16.55;;;9.90;;
25824;SDS011;13658;44.534;18.694;2023-03-14T09:11:57;12.38;;;8.00;;
25824;SDS011;13658;44.534;18.694;2023-03-14T09:14:24;24.60;;;14.93;;
25824;SDS011;13658;44.534;18.694;2023-03-14T09:16:50;7.05;;;4.18;;
25824;SDS011;13658;44.534;18.694;2023-03-14T09:19:16;11.88;;;6.70;;
25824;SDS011;13658;44.534;18.694;2023-03-14T09:21:42;14.15;;;10.02;;
25824;SDS011;13658;44.534;18.694;2023-03-14T09:24:08;18.83;;;13.50;;
25824;SDS011;13658;44.534;18.694;2023-03-14T09:26:34;43.72;;;29.90;;
25824;SDS011;13658;44.534;18.694;2023-03-14T09:29:00;46.10;;;32.13;;
25824;SDS011;13658;44.534;18.694;2023-03-14T09:31:26;116.13;;;76.35;;
25824;SDS011;13658;44.534;18.694;2023-03-14T09:33:52;20.52;;;13.40;;
25824;SDS011;13658;44.534;18.694;2023-03-14T09:36:18;5.47;;;4.18;;
25824;SDS011;13658;44.534;18.694;2023-03-14T09:38:44;8.50;;;6.22;;
25824;SDS011;13658;44.534;18.694;2023-03-14T09:41:15;4.55;;;2.95;;
25824;SDS011;13658;44.534;18.694;2023-03-14T09:43:57;3.45;;;2.17;;
25824;SDS011;13658;44.534;18.694;2023-03-14T09:46:35;3.90;;;2.45;;
25824;SDS011;13658;44.534;18.694;2023-03-14T09:49:07;3.90;;;2.40;;
25824;SDS011;13658;44.534;18.694;2023-03-14T09:52:12;4.90;;;3.00;;
25824;SDS011;13658;44.534;18.694;2023-03-14T09:54:42;2.75;;;2.10;;
25824;SDS011;13658;44.534;18.694;2023-03-14T09:57:21;5.18;;;2.30;;
25824;SDS011;13658;44.534;18.694;2023-03-14T09:59:49;3.85;;;2.78;;
25824;SDS011;13658;44.534;18.694;2023-03-14T10:02:20;10.77;;;7.78;;
25824;SDS011;13658;44.534;18.694;2023-03-14T10:04:48;3.53;;;2.20;;
25824;SDS011;13658;44.534;18.694;2023-03-14T10:07:16;4.53;;;2.60;;
25824;SDS011;13658;44.534;18.694;2023-03-14T10:09:48;4.07;;;2.20;;
25824;SDS011;13658;44.534;18.694;2023-03-14T10:12:16;3.28;;;2.10;;
25824;SDS011;13658;44.534;18.694;2023-03-14T10:14:50;3.47;;;2.42;;
25824;SDS011;13658;44.534;18.694;2023-03-14T10:17:19;3.20;;;2.47;;
25824;SDS011;13658;44.534;18.694;2023-03-14T10:22:20;4.35;;;2.30;;
25824;SDS011;13658;44.534;18.694;2023-03-14T10:24:52;5.28;;;2.80;;
25824;SDS011;13658;44.534;18.694;2023-03-14T10:27:29;3.20;;;2.17;;
25824;SDS011;13658;44.534;18.694;2023-03-14T10:30:00;3.63;;;2.10;;
25824;SDS011;13658;44.534;18.694;2023-03-14T10:32:33;4.10;;;2.00;;
25824;SDS011;13658;44.534;18.694;2023-03-14T10:35:05;7.00;;;3.08;;
25824;SDS011;13658;44.534;18.694;2023-03-14T10:37:47;5.65;;;2.38;;
25824;SDS011;13658;44.534;18.694;2023-03-14T10:40:16;3.97;;;2.70;;
25824;SDS011;13658;44.534;18.694;2023-03-14T10:42:45;4.07;;;2.50;;
25824;SDS011;13658;44.534;18.694;2023-03-14T10:45:22;4.28;;;3.05;;
25824;SDS011;13658;44.534;18.694;2023-03-14T10:47:51;7.40;;;4.20;;
25824;SDS011;13658;44.534;18.694;2023-03-14T10:50:30;5.60;;;3.88;;
25824;SDS011;13658;44.534;18.694;2023-03-14T10:52:57;7.32;;;5.85;;
25824;SDS011;13658;44.534;18.694;2023-03-14T10:55:41;10.63;;;6.63;;
25824;SDS011;13658;44.534;18.694;2023-03-14T11:00:46;3.70;;;2.88;;
25824;SDS011;13658;44.534;18.694;2023-03-14T11:03:36;3.35;;;2.58;;
25824;SDS011;13658;44.534;18.694;2023-03-14T11:06:11;2.92;;;1.98;;
25824;SDS011;13658;44.534;18.694;2023-03-14T11:11:44;5.43;;;2.05;;
25824;SDS011;13658;44.534;18.694;2023-03-14T11:14:18;2.75;;;1.90;;
25824;SDS011;13658;44.534;18.694;2023-03-14T11:17:44;5.17;;;3.40;;
25824;SDS011;13658;44.534;18.694;2023-03-14T11:19:53;4.65;;;2.55;;
25824;SDS011;13658;44.534;18.694;2023-03-14T11:22:55;4.30;;;3.30;;
25824;SDS011;13658;44.534;18.694;2023-03-14T11:25:33;4.80;;;2.90;;
25824;SDS011;13658;44.534;18.694;2023-03-14T11:28:35;3.75;;;2.70;;
25824;SDS011;13658;44.534;18.694;2023-03-14T11:31:13;4.82;;;2.83;;
25824;SDS011;13658;44.534;18.694;2023-03-14T11:34:05;5.82;;;3.80;;
25824;SDS011;13658;44.534;18.694;2023-03-14T11:36:36;4.85;;;3.17;;
25824;SDS011;13658;44.534;18.694;2023-03-14T11:39:13;4.57;;;3.38;;
25824;SDS011;13658;44.534;18.694;2023-03-14T11:41:42;5.30;;;2.60;;
25824;SDS011;13658;44.534;18.694;2023-03-14T11:44:22;6.13;;;2.58;;
25824;SDS011;13658;44.534;18.694;2023-03-14T11:49:40;4.65;;;2.63;;
25824;SDS011;13658;44.534;18.694;2023-03-14T11:52:33;3.05;;;2.00;;
25824;SDS011;13658;44.534;18.694;2023-03-14T11:55:08;7.30;;;3.20;;
25824;SDS011;13658;44.534;18.694;2023-03-14T11:57:45;3.55;;;2.40;;
25824;SDS011;13658;44.534;18.694;2023-03-14T12:10:37;3.08;;;1.65;;
25824;SDS011;13658;44.534;18.694;2023-03-14T12:13:09;2.60;;;1.65;;
25824;SDS011;13658;44.534;18.694;2023-03-14T12:15:41;6.53;;;4.18;;
25824;SDS011;13658;44.534;18.694;2023-03-14T12:18:18;6.03;;;2.50;;
25824;SDS011;13658;44.534;18.694;2023-03-14T12:21:00;4.18;;;2.50;;
25824;SDS011;13658;44.534;18.694;2023-03-14T12:23:41;7.28;;;2.95;;
25824;SDS011;13658;44.534;18.694;2023-03-14T12:28:50;6.15;;;3.50;;
25824;SDS011;13658;44.534;18.694;2023-03-14T12:34:10;7.65;;;4.57;;
25824;SDS011;13658;44.534;18.694;2023-03-14T12:48:11;5.18;;;1.40;;
25824;SDS011;13658;44.534;18.694;2023-03-14T12:56:25;2.38;;;1.50;;
25824;SDS011;13658;44.534;18.694;2023-03-14T12:59:04;3.72;;;1.92;;
25824;SDS011;13658;44.534;18.694;2023-03-14T13:01:45;3.47;;;1.80;;
25824;SDS011;13658;44.534;18.694;2023-03-14T13:06:48;2.40;;;1.50;;
25824;SDS011;13658;44.534;18.694;2023-03-14T13:12:00;11.93;;;5.95;;
25824;SDS011;13658;44.534;18.694;2023-03-14T13:14:29;3.20;;;2.22;;
25824;SDS011;13658;44.534;18.694;2023-03-14T13:16:59;2.85;;;1.90;;
25824;SDS011;13658;44.534;18.694;2023-03-14T13:19:30;4.90;;;3.05;;
25824;SDS011;13658;44.534;18.694;2023-03-14T13:22:02;2.83;;;1.90;;
25824;SDS011;13658;44.534;18.694;2023-03-14T13:24:33;4.30;;;2.03;;
25824;SDS011;13658;44.534;18.694;2023-03-14T13:27:00;3.53;;;1.70;;
25824;SDS011;13658;44.534;18.694;2023-03-14T13:29:32;2.10;;;1.42;;
25824;SDS011;13658;44.534;18.694;2023-03-14T13:32:02;6.57;;;2.10;;
25824;SDS011;13658;44.534;18.694;2023-03-14T13:34:41;4.13;;;2.60;;
25824;SDS011;13658;44.534;18.694;2023-03-14T13:37:19;3.33;;;1.85;;
25824;SDS011;13658;44.534;18.694;2023-03-14T13:39:50;5.30;;;1.83;;
25824;SDS011;13658;44.534;18.694;2023-03-14T13:42:18;4.18;;;1.85;;
25824;SDS011;13658;44.534;18.694;2023-03-14T13:44:44;5.68;;;2.30;;
25824;SDS011;13658;44.534;18.694;2023-03-14T13:47:14;3.50;;;2.15;;
25824;SDS011;13658;44.534;18.694;2023-03-14T13:49:42;3.35;;;2.05;;
25824;SDS011;13658;44.534;18.694;2023-03-14T13:52:22;3.80;;;1.75;;
25824;SDS011;13658;44.534;18.694;2023-03-14T13:54:52;1.80;;;1.48;;
25824;SDS011;13658;44.534;18.694;2023-03-14T13:57:19;3.38;;;2.03;;
25824;SDS011;13658;44.534;18.694;2023-03-14T13:59:45;4.75;;;2.78;;
25824;SDS011;13658;44.534;18.694;2023-03-14T14:02:31;4.50;;;2.55;;
25824;SDS011;13658;44.534;18.694;2023-03-14T14:04:59;4.38;;;2.30;;
25824;SDS011;13658;44.534;18.694;2023-03-14T14:07:26;5.47;;;1.80;;
25824;SDS011;13658;44.534;18.694;2023-03-14T14:09:53;3.47;;;2.13;;
25824;SDS011;13658;44.534;18.694;2023-03-14T14:12:37;5.57;;;2.60;;
25824;SDS011;13658;44.534;18.694;2023-03-14T14:15:10;4.10;;;2.25;;
25824;SDS011;13658;44.534;18.694;2023-03-14T14:17:47;5.25;;;2.92;;
25824;SDS011;13658;44.534;18.694;2023-03-14T14:20:20;3.70;;;2.25;;
25824;SDS011;13658;44.534;18.694;2023-03-14T14:22:48;6.03;;;2.60;;
25824;SDS011;13658;44.534;18.694;2023-03-14T14:25:15;2.83;;;1.90;;
25824;SDS011;13658;44.534;18.694;2023-03-14T14:27:43;2.40;;;1.70;;
25824;SDS011;13658;44.534;18.694;2023-03-14T14:32:48;5.18;;;2.55;;
25824;SDS011;13658;44.534;18.694;2023-03-14T14:38:16;5.10;;;3.20;;
25824;SDS011;13658;44.534;18.694;2023-03-14T14:40:43;7.13;;;3.95;;
25824;SDS011;13658;44.534;18.694;2023-03-14T14:43:11;3.72;;;2.20;;
25824;SDS011;13658;44.534;18.694;2023-03-14T14:45:43;6.05;;;2.13;;
25824;SDS011;13658;44.534;18.694;2023-03-14T14:48:14;3.83;;;2.22;;
25824;SDS011;13658;44.534;18.694;2023-03-14T14:53:35;3.90;;;2.08;;
25824;SDS011;13658;44.534;18.694;2023-03-14T14:56:13;4.60;;;2.65;;
25824;SDS011;13658;44.534;18.694;2023-03-14T14:58:48;8.75;;;2.97;;
25824;SDS011;13658;44.534;18.694;2023-03-14T15:01:16;7.30;;;3.45;;
25824;SDS011;13658;44.534;18.694;2023-03-14T15:03:48;6.53;;;3.70;;
25824;SDS011;13658;44.534;18.694;2023-03-14T15:06:19;4.32;;;2.05;;
25824;SDS011;13658;44.534;18.694;2023-03-14T15:08:46;4.22;;;2.55;;
25824;SDS011;13658;44.534;18.694;2023-03-14T15:11:15;6.13;;;3.50;;
25824;SDS011;13658;44.534;18.694;2023-03-14T15:13:48;4.95;;;3.05;;
25824;SDS011;13658;44.534;18.694;2023-03-14T15:16:15;3.78;;;2.78;;
25824;SDS011;13658;44.534;18.694;2023-03-14T15:18:44;4.78;;;2.60;;
25824;SDS011;13658;44.534;18.694;2023-03-14T15:21:15;4.82;;;2.15;;
25824;SDS011;13658;44.534;18.694;2023-03-14T15:23:41;11.02;;;2.80;;
25824;SDS011;13658;44.534;18.694;2023-03-14T15:26:13;2.70;;;1.80;;
25824;SDS011;13658;44.534;18.694;2023-03-14T15:28:43;2.90;;;2.00;;
25824;SDS011;13658;44.534;18.694;2023-03-14T15:31:11;2.85;;;1.80;;
25824;SDS011;13658;44.534;18.694;2023-03-14T15:33:43;6.22;;;2.10;;
25824;SDS011;13658;44.534;18.694;2023-03-14T15:36:20;4.30;;;2.92;;
25824;SDS011;13658;44.534;18.694;2023-03-14T15:38:50;4.45;;;2.00;;
25824;SDS011;13658;44.534;18.694;2023-03-14T15:41:17;3.58;;;1.80;;
25824;SDS011;13658;44.534;18.694;2023-03-14T15:43:43;3.97;;;1.80;;
25824;SDS011;13658;44.534;18.694;2023-03-14T15:46:10;4.35;;;2.05;;